TimeCDT,TemperatureF,Dew PointF,Humidity,Sea Level PressureIn,VisibilityMPH,Wind Direction,Wind SpeedMPH,Gust SpeedMPH,PrecipitationIn,Events,Conditions,WindDirDegrees,DateUTC
12:15 AM,38.1,35.2,89,30.38,10.0,Calm,Calm,-,N/A,,Clear,0,2013-05-25 05:15:00
12:35 AM,38.5,35.8,90,30.38,10.0,Calm,Calm,-,N/A,,Clear,0,2013-05-25 05:35:00
12:55 AM,38.5,36.5,93,30.37,10.0,Calm,Calm,-,N/A,,Clear,0,2013-05-25 05:55:00
1:15 AM,37.8,35.6,92,30.36,10.0,Calm,Calm,-,N/A,,Clear,0,2013-05-25 06:15:00
1:35 AM,37.4,36.1,95,30.36,10.0,North,3.5,-,N/A,,Clear,10,2013-05-25 06:35:00
1:55 AM,37.8,36.1,94,30.35,10.0,ENE,3.5,-,N/A,,Clear,60,2013-05-25 06:55:00
2:15 AM,37.6,35.8,93,30.34,10.0,NE,3.5,-,N/A,,Scattered Clouds,40,2013-05-25 07:15:00
2:35 AM,37.4,35.8,94,30.34,10.0,Calm,Calm,-,N/A,,Scattered Clouds,0,2013-05-25 07:35:00
2:55 AM,37.9,36.5,95,30.32,10.0,East,4.6,-,N/A,,Clear,100,2013-05-25 07:55:00
3:15 AM,38.3,37.2,96,30.32,10.0,Calm,Calm,-,N/A,,Clear,0,2013-05-25 08:15:00
3:35 AM,37.6,36.5,96,30.32,10.0,Calm,Calm,-,N/A,,Clear,0,2013-05-25 08:35:00
3:55 AM,36.9,36.0,97,30.33,10.0,Calm,Calm,-,N/A,,Clear,0,2013-05-25 08:55:00
4:15 AM,37.2,36.3,97,30.33,10.0,Calm,Calm,-,N/A,,Clear,0,2013-05-25 09:15:00
4:35 AM,37.0,36.5,98,30.35,10.0,Calm,Calm,-,N/A,,Clear,0,2013-05-25 09:35:00
4:55 AM,37.6,36.9,97,30.36,10.0,Calm,Calm,-,N/A,,Clear,0,2013-05-25 09:55:00
5:15 AM,37.4,36.7,97,30.36,10.0,Calm,Calm,-,N/A,,Clear,0,2013-05-25 10:15:00
5:35 AM,38.3,37.4,97,30.37,10.0,Calm,Calm,-,N/A,,Clear,0,2013-05-25 10:35:00
5:55 AM,40.1,39.4,97,30.38,10.0,Calm,Calm,-,N/A,,Clear,0,2013-05-25 10:55:00
6:15 AM,41.0,40.1,97,30.37,10.0,Calm,Calm,-,N/A,,Clear,0,2013-05-25 11:15:00
6:35 AM,41.9,40.1,93,30.38,10.0,Calm,Calm,-,N/A,,Clear,0,2013-05-25 11:35:00
6:55 AM,42.3,39.6,90,30.39,10.0,Calm,Calm,-,N/A,,Scattered Clouds,0,2013-05-25 11:55:00
7:15 AM,42.8,40.5,91,30.40,10.0,West,5.8,-,N/A,,Mostly Cloudy,260,2013-05-25 12:15:00
7:35 AM,43.2,39.7,88,30.39,10.0,North,3.5,-,N/A,,Overcast,350,2013-05-25 12:35:00
7:55 AM,44.4,39.6,83,30.39,10.0,North,3.5,-,N/A,,Mostly Cloudy,360,2013-05-25 12:55:00
8:15 AM,46.4,38.7,74,30.40,10.0,Calm,Calm,-,N/A,,Mostly Cloudy,0,2013-05-25 13:15:00
8:35 AM,48.6,37.9,67,30.39,10.0,Calm,Calm,-,N/A,,Overcast,0,2013-05-25 13:35:00
8:55 AM,49.5,39.2,68,30.39,10.0,ENE,4.6,-,N/A,,Overcast,70,2013-05-25 13:55:00
9:15 AM,50.9,39.7,66,30.40,10.0,Calm,Calm,-,N/A,,Overcast,0,2013-05-25 14:15:00
9:35 AM,52.0,41.0,66,30.39,10.0,East,6.9,-,N/A,,Overcast,80,2013-05-25 14:35:00
9:55 AM,53.4,41.2,63,30.39,10.0,East,4.6,-,N/A,,Overcast,90,2013-05-25 14:55:00
10:15 AM,54.5,41.0,60,30.39,10.0,ESE,3.5,-,N/A,,Overcast,120,2013-05-25 15:15:00
10:35 AM,55.4,40.8,58,30.39,10.0,ESE,3.5,-,N/A,,Mostly Cloudy,110,2013-05-25 15:35:00
10:55 AM,55.2,41.7,60,30.38,10.0,East,3.5,-,N/A,,Mostly Cloudy,80,2013-05-25 15:55:00
11:15 AM,55.9,42.3,60,30.38,10.0,Calm,Calm,-,N/A,,Overcast,0,2013-05-25 16:15:00
11:35 AM,56.5,41.7,58,30.39,10.0,Calm,Calm,-,N/A,,Overcast,0,2013-05-25 16:35:00
11:55 AM,56.3,41.9,59,30.39,10.0,Calm,Calm,-,N/A,,Overcast,0,2013-05-25 16:55:00
12:15 PM,56.3,42.4,60,30.39,10.0,Calm,Calm,-,N/A,,Overcast,0,2013-05-25 17:15:00
12:35 PM,56.5,42.4,59,30.39,10.0,WSW,3.5,-,N/A,,Overcast,250,2013-05-25 17:35:00
12:55 PM,55.4,46.4,72,30.38,10.0,NW,8.1,-,N/A,,Overcast,310,2013-05-25 17:55:00
1:15 PM,55.4,46.2,71,30.37,10.0,WNW,3.5,-,N/A,,Overcast,300,2013-05-25 18:15:00
1:35 PM,55.4,46.0,71,30.36,10.0,NNW,5.8,-,N/A,,Overcast,340,2013-05-25 18:35:00
1:55 PM,56.3,46.2,69,30.35,10.0,North,4.6,-,N/A,,Overcast,350,2013-05-25 18:55:00
2:15 PM,56.8,45.7,66,30.34,10.0,NNW,3.5,-,N/A,,Overcast,340,2013-05-25 19:15:00
2:35 PM,57.4,45.9,65,30.33,10.0,North,3.5,-,N/A,,Overcast,350,2013-05-25 19:35:00
2:55 PM,57.7,46.2,65,30.33,10.0,NNW,4.6,-,N/A,,Overcast,340,2013-05-25 19:55:00
3:15 PM,58.8,45.7,62,30.33,10.0,NE,3.5,-,N/A,,Overcast,40,2013-05-25 20:15:00
3:35 PM,59.2,45.3,60,30.32,10.0,WNW,3.5,-,N/A,,Scattered Clouds,290,2013-05-25 20:35:00
3:55 PM,59.7,45.5,59,30.31,10.0,NE,3.5,-,N/A,,Clear,40,2013-05-25 20:55:00
4:15 PM,59.9,45.9,60,30.30,10.0,NNE,4.6,-,N/A,,Clear,20,2013-05-25 21:15:00
4:35 PM,59.9,45.9,60,30.30,10.0,North,6.9,-,N/A,,Clear,10,2013-05-25 21:35:00
4:55 PM,59.2,45.5,60,30.29,10.0,North,8.1,-,N/A,,Clear,360,2013-05-25 21:55:00
5:15 PM,57.7,44.8,62,30.29,10.0,North,9.2,-,N/A,,Scattered Clouds,360,2013-05-25 22:15:00
5:35 PM,57.0,43.9,61,30.30,10.0,NNW,9.2,-,N/A,,Mostly Cloudy,340,2013-05-25 22:35:00
5:55 PM,56.3,42.8,61,30.31,10.0,NNW,8.1,-,N/A,,Overcast,330,2013-05-25 22:55:00
6:15 PM,55.0,41.0,59,30.31,10.0,NNW,6.9,-,N/A,,Overcast,330,2013-05-25 23:15:00
6:35 PM,54.1,40.1,59,30.31,10.0,NNW,6.9,-,N/A,,Overcast,330,2013-05-25 23:35:00
6:55 PM,53.1,36.0,52,30.31,10.0,NNW,6.9,-,N/A,,Overcast,340,2013-05-25 23:55:00
7:15 PM,52.7,36.7,55,30.30,10.0,North,3.5,-,N/A,,Overcast,350,2013-05-26 00:15:00
7:35 PM,52.0,37.8,58,30.30,10.0,North,8.1,-,N/A,,Overcast,350,2013-05-26 00:35:00
7:55 PM,51.8,38.8,61,30.30,10.0,North,6.9,-,N/A,,Overcast,10,2013-05-26 00:55:00
8:15 PM,51.4,40.1,65,30.30,10.0,North,5.8,-,N/A,,Overcast,350,2013-05-26 01:15:00
8:35 PM,51.1,39.9,66,30.30,10.0,NNW,3.5,-,N/A,,Overcast,340,2013-05-26 01:35:00
8:55 PM,50.9,41.2,69,30.31,10.0,NW,3.5,-,N/A,,Overcast,320,2013-05-26 01:55:00
9:15 PM,50.5,41.5,71,30.31,10.0,Calm,Calm,-,N/A,,Overcast,0,2013-05-26 02:15:00
9:35 PM,50.5,41.4,71,30.31,10.0,Calm,Calm,-,N/A,,Overcast,0,2013-05-26 02:35:00
9:55 PM,50.2,42.6,75,30.31,10.0,Calm,Calm,-,N/A,,Overcast,0,2013-05-26 02:55:00
10:15 PM,50.0,42.1,74,30.31,10.0,NW,3.5,-,N/A,,Overcast,310,2013-05-26 03:15:00
10:35 PM,49.8,42.3,75,30.32,10.0,NW,3.5,-,N/A,,Overcast,310,2013-05-26 03:35:00
10:55 PM,49.3,43.2,79,30.32,10.0,Calm,Calm,-,N/A,,Overcast,0,2013-05-26 03:55:00
11:15 PM,48.7,44.1,84,30.32,10.0,West,4.6,-,N/A,,Overcast,270,2013-05-26 04:15:00
11:35 PM,48.4,43.7,84,30.32,10.0,WNW,3.5,-,N/A,,Overcast,290,2013-05-26 04:35:00
11:55 PM,47.3,43.5,87,30.32,10.0,Calm,Calm,-,N/A,,Scattered Clouds,0,2013-05-26 04:55:00